N783LA KSAV-KCLT
Flight info
| Callsign | N783LA |
|---|---|
| Flight time | 1h 5m |
| Altitude | 6500 |
| Route | |
| Aircraft | COL4/L-DOV/C |
Departure
| Time | 2026-05-06 00:18 |
|---|---|
| Airport | Savannah Hilton Head International Airport (KSAV) |
Arrival
| Time | 2026-05-06 01:24 |
|---|---|
| Airport | Charlotte Douglas International Airport (KCLT) |
| Time | Latitude | Longitude | Altitude | Speed | Heading |
|---|---|---|---|---|---|
| 2026-05-06 00:06 | 32.12191 | -81.19642 | 43 ft | 0 kts | 181° |
| 2026-05-06 00:09 | 32.12192 | -81.19658 | 43 ft | 10 kts | 314° |
| 2026-05-06 00:10 | 32.12258 | -81.19691 | 44 ft | 4 kts | 318° |
| 2026-05-06 00:10 | 32.12294 | -81.19747 | 44 ft | 3 kts | 298° |
| 2026-05-06 00:10 | 32.12294 | -81.19749 | 44 ft | 0 kts | 299° |
| 2026-05-06 00:10 | 32.12301 | -81.19763 | 44 ft | 7 kts | 298° |
| 2026-05-06 00:11 | 32.12322 | -81.19800 | 45 ft | 9 kts | 320° |
| 2026-05-06 00:11 | 32.12418 | -81.19811 | 48 ft | 19 kts | 360° |
| 2026-05-06 00:11 | 32.12509 | -81.19811 | 50 ft | 14 kts | 359° |
| 2026-05-06 00:11 | 32.12575 | -81.19810 | 50 ft | 10 kts | 8° |
| 2026-05-06 00:12 | 32.12675 | -81.19811 | 50 ft | 7 kts | 358° |
| 2026-05-06 00:12 | 32.12722 | -81.19813 | 51 ft | 2 kts | 2° |
| 2026-05-06 00:12 | 32.12736 | -81.19813 | 51 ft | 0 kts | 358° |
| 2026-05-06 00:13 | 32.12767 | -81.19814 | 52 ft | 10 kts | 0° |
| 2026-05-06 00:13 | 32.12876 | -81.19817 | 52 ft | 18 kts | 360° |
| 2026-05-06 00:13 | 32.13041 | -81.19819 | 50 ft | 27 kts | 358° |
| 2026-05-06 00:14 | 32.13160 | -81.19820 | 52 ft | 12 kts | 357° |
| 2026-05-06 00:14 | 32.13258 | -81.19824 | 55 ft | 18 kts | 1° |
| 2026-05-06 00:14 | 32.13394 | -81.19824 | 56 ft | 20 kts | 1° |
| 2026-05-06 00:14 | 32.13498 | -81.19823 | 57 ft | 13 kts | 4° |
| 2026-05-06 00:15 | 32.13515 | -81.19823 | 56 ft | 6 kts | 350° |
| 2026-05-06 00:15 | 32.13546 | -81.19852 | 59 ft | 0 kts | 303° |
| 2026-05-06 00:15 | 32.13549 | -81.19859 | 60 ft | 4 kts | 300° |
| 2026-05-06 00:16 | 32.13550 | -81.19861 | 60 ft | 0 kts | 297° |
| 2026-05-06 00:16 | 32.13554 | -81.19879 | 61 ft | 7 kts | 283° |
| 2026-05-06 00:16 | 32.13556 | -81.19904 | 60 ft | 0 kts | 269° |
| 2026-05-06 00:16 | 32.13556 | -81.19932 | 63 ft | 10 kts | 270° |
| 2026-05-06 00:17 | 32.13527 | -81.20012 | 63 ft | 12 kts | 192° |
| 2026-05-06 00:17 | 32.13517 | -81.20014 | 64 ft | 0 kts | 182° |
| 2026-05-06 00:17 | 32.13452 | -81.20012 | 60 ft | 34 kts | 180° |
| 2026-05-06 00:18 | 32.13005 | -81.20006 | 53 ft | 89 kts | 179° |
| 2026-05-06 00:18 | 32.12305 | -81.19984 | 207 ft | 106 kts | 177° |
| 2026-05-06 00:18 | 32.11558 | -81.19955 | 472 ft | 110 kts | 177° |
| 2026-05-06 00:18 | 32.10799 | -81.19937 | 789 ft | 107 kts | 174° |
| 2026-05-06 00:19 | 32.10144 | -81.19702 | 1140 ft | 98 kts | 134° |
| 2026-05-06 00:19 | 32.09921 | -81.18962 | 1490 ft | 101 kts | 89° |
| 2026-05-06 00:19 | 32.10054 | -81.18065 | 1601 ft | 124 kts | 80° |
| 2026-05-06 00:19 | 32.10373 | -81.17081 | 1832 ft | 127 kts | 68° |
| 2026-05-06 00:20 | 32.10896 | -81.16188 | 1995 ft | 132 kts | 62° |
| 2026-05-06 00:20 | 32.11410 | -81.15298 | 2219 ft | 133 kts | 63° |
| 2026-05-06 00:20 | 32.11953 | -81.14403 | 2408 ft | 134 kts | 47° |
| 2026-05-06 00:20 | 32.12676 | -81.13692 | 2614 ft | 137 kts | 24° |
| 2026-05-06 00:21 | 32.13581 | -81.13333 | 2814 ft | 139 kts | 358° |
| 2026-05-06 00:21 | 32.14570 | -81.13293 | 2878 ft | 145 kts | 356° |
| 2026-05-06 00:21 | 32.15554 | -81.13181 | 3045 ft | 144 kts | 2° |
| 2026-05-06 00:21 | 32.16592 | -81.13142 | 3074 ft | 153 kts | 6° |
| 2026-05-06 00:22 | 32.17677 | -81.13061 | 3099 ft | 157 kts | 356° |
| 2026-05-06 00:22 | 32.18756 | -81.13166 | 3113 ft | 160 kts | 354° |
| 2026-05-06 00:22 | 32.19831 | -81.13384 | 3250 ft | 151 kts | 342° |
| 2026-05-06 00:22 | 32.20899 | -81.13745 | 3126 ft | 160 kts | 348° |
| 2026-05-06 00:23 | 32.21967 | -81.13988 | 3258 ft | 154 kts | 348° |
| 2026-05-06 00:23 | 32.23020 | -81.14216 | 3349 ft | 153 kts | 348° |
| 2026-05-06 00:23 | 32.24061 | -81.14425 | 3490 ft | 149 kts | 349° |
| 2026-05-06 00:23 | 32.25076 | -81.14616 | 3654 ft | 147 kts | 348° |
| 2026-05-06 00:24 | 32.26082 | -81.14795 | 3821 ft | 145 kts | 348° |
| 2026-05-06 00:24 | 32.27078 | -81.14961 | 3993 ft | 144 kts | 351° |
| 2026-05-06 00:24 | 32.28068 | -81.15116 | 4164 ft | 143 kts | 349° |
| 2026-05-06 00:24 | 32.29055 | -81.15261 | 4337 ft | 143 kts | 349° |
| 2026-05-06 00:25 | 32.30088 | -81.15407 | 4500 ft | 158 kts | 349° |
| 2026-05-06 00:25 | 32.31228 | -81.15559 | 4695 ft | 170 kts | 351° |
| 2026-05-06 00:25 | 32.32432 | -81.15703 | 4878 ft | 177 kts | 351° |
| 2026-05-06 00:25 | 32.33672 | -81.15833 | 5056 ft | 181 kts | 352° |
| 2026-05-06 00:26 | 32.34933 | -81.15944 | 5228 ft | 182 kts | 353° |
| 2026-05-06 00:26 | 32.36210 | -81.16036 | 5404 ft | 184 kts | 353° |
| 2026-05-06 00:26 | 32.37495 | -81.16112 | 5581 ft | 186 kts | 354° |
| 2026-05-06 00:26 | 32.38793 | -81.16170 | 5757 ft | 187 kts | 354° |
| 2026-05-06 00:27 | 32.40097 | -81.16214 | 5929 ft | 188 kts | 355° |
| 2026-05-06 00:27 | 32.40964 | -81.16235 | 6047 ft | 188 kts | 355° |
| 2026-05-06 00:27 | 32.42279 | -81.16256 | 6223 ft | 189 kts | 355° |
| 2026-05-06 00:27 | 32.44025 | -81.16264 | 6458 ft | 190 kts | 356° |
| 2026-05-06 00:28 | 32.45359 | -81.16257 | 6555 ft | 195 kts | 356° |
| 2026-05-06 00:28 | 32.46741 | -81.16244 | 6558 ft | 201 kts | 356° |
| 2026-05-06 00:28 | 32.48150 | -81.16218 | 6561 ft | 203 kts | 357° |
| 2026-05-06 00:28 | 32.49569 | -81.16178 | 6568 ft | 205 kts | 357° |
| 2026-05-06 00:29 | 32.50519 | -81.16147 | 6567 ft | 207 kts | 358° |
| 2026-05-06 00:29 | 32.51962 | -81.16089 | 6572 ft | 208 kts | 358° |
| 2026-05-06 00:29 | 32.53409 | -81.16020 | 6572 ft | 208 kts | 359° |
| 2026-05-06 00:29 | 32.54859 | -81.15943 | 6570 ft | 208 kts | 359° |
| 2026-05-06 00:30 | 32.56300 | -81.15859 | 6570 ft | 207 kts | 359° |
| 2026-05-06 00:30 | 32.57750 | -81.15768 | 6568 ft | 209 kts | 359° |
| 2026-05-06 00:30 | 32.59201 | -81.15672 | 6568 ft | 209 kts | 359° |
| 2026-05-06 00:30 | 32.60648 | -81.15572 | 6568 ft | 208 kts | 359° |
| 2026-05-06 00:31 | 32.62089 | -81.15466 | 6566 ft | 207 kts | 359° |
| 2026-05-06 00:31 | 32.63531 | -81.15356 | 6565 ft | 207 kts | 359° |
| 2026-05-06 00:31 | 32.64971 | -81.15245 | 6565 ft | 208 kts | 359° |
| 2026-05-06 00:31 | 32.66418 | -81.15129 | 6567 ft | 209 kts | 359° |
| 2026-05-06 00:32 | 32.67871 | -81.15012 | 6565 ft | 210 kts | 359° |
| 2026-05-06 00:32 | 32.69306 | -81.14894 | 6564 ft | 209 kts | 359° |
| 2026-05-06 00:32 | 32.70761 | -81.14772 | 6562 ft | 210 kts | 359° |
| 2026-05-06 00:32 | 32.72212 | -81.14652 | 6560 ft | 209 kts | 359° |
| 2026-05-06 00:33 | 32.73661 | -81.14533 | 6558 ft | 208 kts | 359° |
| 2026-05-06 00:33 | 32.75105 | -81.14416 | 6558 ft | 208 kts | 359° |
| 2026-05-06 00:33 | 32.76551 | -81.14292 | 6557 ft | 208 kts | 359° |
| 2026-05-06 00:33 | 32.77994 | -81.14171 | 6554 ft | 208 kts | 359° |
| 2026-05-06 00:34 | 32.79432 | -81.14049 | 6554 ft | 207 kts | 359° |
| 2026-05-06 00:34 | 32.80871 | -81.13926 | 6555 ft | 208 kts | 359° |
| 2026-05-06 00:34 | 32.82313 | -81.13804 | 6553 ft | 208 kts | 359° |
| 2026-05-06 00:34 | 32.83757 | -81.13682 | 6553 ft | 208 kts | 359° |
| 2026-05-06 00:35 | 32.85200 | -81.13558 | 6555 ft | 208 kts | 359° |
| 2026-05-06 00:35 | 32.86641 | -81.13435 | 6553 ft | 207 kts | 359° |
| 2026-05-06 00:35 | 32.88060 | -81.13314 | 6556 ft | 207 kts | 359° |
| 2026-05-06 00:35 | 32.89520 | -81.13191 | 6554 ft | 208 kts | 359° |
| 2026-05-06 00:36 | 32.90945 | -81.13073 | 6553 ft | 207 kts | 359° |
| 2026-05-06 00:36 | 32.92386 | -81.12951 | 6553 ft | 208 kts | 359° |
| 2026-05-06 00:36 | 32.93829 | -81.12830 | 6552 ft | 207 kts | 359° |
| 2026-05-06 00:36 | 32.95266 | -81.12708 | 6553 ft | 207 kts | 359° |
| 2026-05-06 00:37 | 32.96706 | -81.12587 | 6554 ft | 207 kts | 359° |
| 2026-05-06 00:37 | 32.98145 | -81.12465 | 6554 ft | 208 kts | 359° |
| 2026-05-06 00:37 | 32.99591 | -81.12343 | 6554 ft | 208 kts | 359° |
| 2026-05-06 00:37 | 33.01039 | -81.12221 | 6555 ft | 208 kts | 359° |
| 2026-05-06 00:38 | 33.02483 | -81.12098 | 6555 ft | 209 kts | 359° |
| 2026-05-06 00:38 | 33.03935 | -81.11975 | 6554 ft | 209 kts | 359° |
| 2026-05-06 00:38 | 33.05387 | -81.11852 | 6553 ft | 209 kts | 359° |
| 2026-05-06 00:38 | 33.06836 | -81.11726 | 6550 ft | 208 kts | 359° |
| 2026-05-06 00:39 | 33.08281 | -81.11600 | 6550 ft | 208 kts | 359° |
| 2026-05-06 00:39 | 33.09725 | -81.11473 | 6551 ft | 208 kts | 359° |
| 2026-05-06 00:39 | 33.11167 | -81.11345 | 6549 ft | 208 kts | 359° |
| 2026-05-06 00:39 | 33.12611 | -81.11216 | 6550 ft | 208 kts | 359° |
| 2026-05-06 00:40 | 33.14035 | -81.11089 | 6549 ft | 208 kts | 359° |
| 2026-05-06 00:40 | 33.15480 | -81.10959 | 6549 ft | 208 kts | 359° |
| 2026-05-06 00:40 | 33.16928 | -81.10830 | 6550 ft | 209 kts | 359° |
| 2026-05-06 00:40 | 33.18375 | -81.10700 | 6550 ft | 208 kts | 359° |
| 2026-05-06 00:41 | 33.19819 | -81.10569 | 6546 ft | 208 kts | 359° |
| 2026-05-06 00:41 | 33.21257 | -81.10441 | 6547 ft | 207 kts | 359° |
| 2026-05-06 00:41 | 33.22696 | -81.10310 | 6547 ft | 207 kts | 359° |
| 2026-05-06 00:41 | 33.24137 | -81.10178 | 6547 ft | 208 kts | 359° |
| 2026-05-06 00:42 | 33.25575 | -81.10046 | 6547 ft | 207 kts | 359° |
| 2026-05-06 00:42 | 33.27012 | -81.09916 | 6548 ft | 207 kts | 359° |
| 2026-05-06 00:42 | 33.28452 | -81.09782 | 6547 ft | 208 kts | 359° |
| 2026-05-06 00:42 | 33.29894 | -81.09652 | 6546 ft | 207 kts | 359° |
| 2026-05-06 00:43 | 33.31331 | -81.09519 | 6550 ft | 207 kts | 359° |
| 2026-05-06 00:43 | 33.32766 | -81.09385 | 6551 ft | 207 kts | 359° |
| 2026-05-06 00:43 | 33.34202 | -81.09253 | 6551 ft | 207 kts | 359° |
| 2026-05-06 00:43 | 33.35640 | -81.09119 | 6551 ft | 207 kts | 359° |
| 2026-05-06 00:44 | 33.37076 | -81.08987 | 6551 ft | 208 kts | 360° |
| 2026-05-06 00:44 | 33.38524 | -81.08854 | 6550 ft | 209 kts | 359° |
| 2026-05-06 00:44 | 33.39977 | -81.08720 | 6553 ft | 210 kts | 360° |
| 2026-05-06 00:44 | 33.41436 | -81.08587 | 6553 ft | 211 kts | 360° |
| 2026-05-06 00:45 | 33.42898 | -81.08455 | 6529 ft | 211 kts | 360° |
| 2026-05-06 00:45 | 33.44357 | -81.08320 | 6528 ft | 210 kts | 0° |
| 2026-05-06 00:45 | 33.45813 | -81.08186 | 6528 ft | 209 kts | 360° |
| 2026-05-06 00:45 | 33.47265 | -81.08053 | 6526 ft | 209 kts | 360° |
| 2026-05-06 00:46 | 33.48717 | -81.07919 | 6525 ft | 209 kts | 359° |
| 2026-05-06 00:46 | 33.50429 | -81.07762 | 6526 ft | 210 kts | 360° |
| 2026-05-06 00:46 | 33.54410 | -81.07397 | 6526 ft | 210 kts | 359° |
| 2026-05-06 00:46 | 33.60222 | -81.06862 | 6526 ft | 209 kts | 359° |
| 2026-05-06 00:47 | 33.63065 | -81.06603 | 6528 ft | 210 kts | 360° |
| 2026-05-06 00:47 | 33.64526 | -81.06468 | 6527 ft | 211 kts | 360° |
| 2026-05-06 00:47 | 33.65648 | -81.06367 | 6527 ft | 212 kts | 360° |
| 2026-05-06 00:47 | 33.66386 | -81.06300 | 6528 ft | 213 kts | 0° |
| 2026-05-06 00:48 | 33.67423 | -81.06205 | 6528 ft | 213 kts | 0° |
| 2026-05-06 00:48 | 33.68902 | -81.06069 | 6525 ft | 213 kts | 0° |
| 2026-05-06 00:48 | 33.70380 | -81.05935 | 6526 ft | 213 kts | 0° |
| 2026-05-06 00:48 | 33.71860 | -81.05802 | 6525 ft | 213 kts | 0° |
| 2026-05-06 00:49 | 33.73336 | -81.05667 | 6527 ft | 213 kts | 360° |
| 2026-05-06 00:49 | 33.74815 | -81.05532 | 6527 ft | 213 kts | 0° |
| 2026-05-06 00:49 | 33.76295 | -81.05398 | 6526 ft | 213 kts | 360° |
| 2026-05-06 00:49 | 33.77772 | -81.05264 | 6531 ft | 213 kts | 0° |
| 2026-05-06 00:50 | 33.79243 | -81.05131 | 6524 ft | 212 kts | 360° |
| 2026-05-06 00:50 | 33.80712 | -81.04997 | 6526 ft | 212 kts | 360° |
| 2026-05-06 00:50 | 33.82182 | -81.04863 | 6527 ft | 212 kts | 360° |
| 2026-05-06 00:50 | 33.83656 | -81.04730 | 6526 ft | 212 kts | 360° |
| 2026-05-06 00:51 | 33.85105 | -81.04597 | 6526 ft | 211 kts | 360° |
| 2026-05-06 00:51 | 33.86586 | -81.04463 | 6528 ft | 211 kts | 360° |
| 2026-05-06 00:51 | 33.88057 | -81.04329 | 6527 ft | 212 kts | 359° |
| 2026-05-06 00:51 | 33.89508 | -81.04196 | 6529 ft | 212 kts | 360° |
| 2026-05-06 00:52 | 33.90987 | -81.04064 | 6535 ft | 214 kts | 0° |
| 2026-05-06 00:52 | 33.92474 | -81.03930 | 6534 ft | 215 kts | 0° |
| 2026-05-06 00:52 | 33.93966 | -81.03794 | 6535 ft | 215 kts | 0° |
| 2026-05-06 00:52 | 33.95461 | -81.03659 | 6536 ft | 215 kts | 0° |
| 2026-05-06 00:53 | 33.96955 | -81.03525 | 6537 ft | 215 kts | 0° |
| 2026-05-06 00:53 | 33.98454 | -81.03391 | 6535 ft | 217 kts | 0° |
| 2026-05-06 00:53 | 33.99956 | -81.03256 | 6535 ft | 217 kts | 0° |
| 2026-05-06 00:53 | 34.01460 | -81.03120 | 6535 ft | 217 kts | 360° |
| 2026-05-06 00:54 | 34.02962 | -81.02986 | 6535 ft | 216 kts | 0° |
| 2026-05-06 00:54 | 34.04467 | -81.02851 | 6535 ft | 217 kts | 0° |
| 2026-05-06 00:54 | 34.05969 | -81.02717 | 6535 ft | 216 kts | 0° |
| 2026-05-06 00:54 | 34.07473 | -81.02581 | 6537 ft | 216 kts | 0° |
| 2026-05-06 00:55 | 34.08975 | -81.02447 | 6533 ft | 216 kts | 0° |
| 2026-05-06 00:55 | 34.10472 | -81.02312 | 6533 ft | 216 kts | 0° |
| 2026-05-06 00:55 | 34.11972 | -81.02177 | 6532 ft | 216 kts | 0° |
| 2026-05-06 00:55 | 34.13469 | -81.02042 | 6531 ft | 216 kts | 0° |
| 2026-05-06 00:56 | 34.14966 | -81.01909 | 6535 ft | 216 kts | 0° |
| 2026-05-06 00:56 | 34.16455 | -81.01776 | 6533 ft | 217 kts | 1° |
| 2026-05-06 00:56 | 34.17966 | -81.01642 | 6535 ft | 218 kts | 1° |
| 2026-05-06 00:56 | 34.19484 | -81.01506 | 6532 ft | 219 kts | 1° |
| 2026-05-06 00:57 | 34.21003 | -81.01370 | 6532 ft | 219 kts | 1° |
| 2026-05-06 00:57 | 34.22524 | -81.01236 | 6533 ft | 219 kts | 0° |
| 2026-05-06 00:57 | 34.24041 | -81.01101 | 6535 ft | 219 kts | 0° |
| 2026-05-06 00:57 | 34.25557 | -81.00966 | 6537 ft | 219 kts | 0° |
| 2026-05-06 00:58 | 34.27077 | -81.00831 | 6534 ft | 219 kts | 0° |
| 2026-05-06 00:58 | 34.28593 | -81.00696 | 6535 ft | 219 kts | 0° |
| 2026-05-06 00:58 | 34.30112 | -81.00561 | 6535 ft | 219 kts | 0° |
| 2026-05-06 00:58 | 34.31629 | -81.00426 | 6534 ft | 218 kts | 0° |
| 2026-05-06 00:59 | 34.33143 | -81.00291 | 6533 ft | 218 kts | 1° |
| 2026-05-06 00:59 | 34.34652 | -81.00157 | 6535 ft | 218 kts | 1° |
| 2026-05-06 00:59 | 34.36166 | -81.00022 | 6525 ft | 218 kts | 1° |
| 2026-05-06 00:59 | 34.37682 | -80.99887 | 6479 ft | 220 kts | 1° |
| 2026-05-06 01:00 | 34.39227 | -80.99750 | 6352 ft | 224 kts | 1° |
| 2026-05-06 01:00 | 34.40790 | -80.99614 | 6231 ft | 226 kts | 1° |
| 2026-05-06 01:00 | 34.42348 | -80.99480 | 6108 ft | 228 kts | 1° |
| 2026-05-06 01:00 | 34.43937 | -80.99341 | 5988 ft | 229 kts | 1° |
| 2026-05-06 01:01 | 34.45531 | -80.99202 | 5860 ft | 230 kts | 1° |
| 2026-05-06 01:01 | 34.47126 | -80.99064 | 5734 ft | 230 kts | 2° |
| 2026-05-06 01:01 | 34.48714 | -80.98925 | 5611 ft | 229 kts | 1° |
| 2026-05-06 01:01 | 34.50302 | -80.98786 | 5489 ft | 229 kts | 2° |
| 2026-05-06 01:02 | 34.51897 | -80.98647 | 5366 ft | 229 kts | 1° |
| 2026-05-06 01:02 | 34.53483 | -80.98510 | 5244 ft | 229 kts | 1° |
| 2026-05-06 01:02 | 34.55075 | -80.98374 | 5124 ft | 229 kts | 1° |
| 2026-05-06 01:02 | 34.56663 | -80.98248 | 5001 ft | 229 kts | 2° |
| 2026-05-06 01:03 | 34.58256 | -80.98118 | 4879 ft | 229 kts | 1° |
| 2026-05-06 01:03 | 34.59846 | -80.97985 | 4755 ft | 229 kts | 2° |
| 2026-05-06 01:03 | 34.61429 | -80.97852 | 4630 ft | 228 kts | 2° |
| 2026-05-06 01:03 | 34.62991 | -80.97718 | 4539 ft | 227 kts | 2° |
| 2026-05-06 01:04 | 34.64549 | -80.97585 | 4539 ft | 223 kts | 2° |
| 2026-05-06 01:04 | 34.66087 | -80.97450 | 4542 ft | 221 kts | 2° |
| 2026-05-06 01:04 | 34.67627 | -80.97316 | 4539 ft | 222 kts | 2° |
| 2026-05-06 01:04 | 34.69167 | -80.97182 | 4540 ft | 221 kts | 2° |
| 2026-05-06 01:05 | 34.70703 | -80.97046 | 4540 ft | 222 kts | 2° |
| 2026-05-06 01:05 | 34.72241 | -80.96911 | 4539 ft | 221 kts | 2° |
| 2026-05-06 01:05 | 34.73780 | -80.96776 | 4539 ft | 221 kts | 2° |
| 2026-05-06 01:05 | 34.75314 | -80.96643 | 4539 ft | 221 kts | 2° |
| 2026-05-06 01:06 | 34.76843 | -80.96509 | 4533 ft | 220 kts | 2° |
| 2026-05-06 01:06 | 34.78369 | -80.96376 | 4534 ft | 220 kts | 2° |
| 2026-05-06 01:06 | 34.79900 | -80.96240 | 4533 ft | 221 kts | 2° |
| 2026-05-06 01:06 | 34.81427 | -80.96107 | 4531 ft | 220 kts | 2° |
| 2026-05-06 01:07 | 34.82952 | -80.95973 | 4534 ft | 220 kts | 2° |
| 2026-05-06 01:07 | 34.84483 | -80.95839 | 4533 ft | 221 kts | 2° |
| 2026-05-06 01:07 | 34.86012 | -80.95704 | 4517 ft | 220 kts | 2° |
| 2026-05-06 01:07 | 34.87520 | -80.95570 | 4517 ft | 220 kts | 2° |
| 2026-05-06 01:08 | 34.89049 | -80.95439 | 4514 ft | 219 kts | 1° |
| 2026-05-06 01:08 | 34.90572 | -80.95314 | 4515 ft | 219 kts | 2° |
| 2026-05-06 01:08 | 34.92095 | -80.95186 | 4522 ft | 220 kts | 2° |
| 2026-05-06 01:08 | 34.93618 | -80.95058 | 4520 ft | 219 kts | 1° |
| 2026-05-06 01:09 | 34.95146 | -80.94929 | 4526 ft | 220 kts | 1° |
| 2026-05-06 01:09 | 34.96679 | -80.94800 | 4527 ft | 221 kts | 2° |
| 2026-05-06 01:09 | 34.98214 | -80.94670 | 4526 ft | 221 kts | 2° |
| 2026-05-06 01:09 | 34.99746 | -80.94539 | 4527 ft | 220 kts | 2° |
| 2026-05-06 01:10 | 35.01280 | -80.94407 | 4521 ft | 221 kts | 1° |
| 2026-05-06 01:10 | 35.02812 | -80.94277 | 4518 ft | 221 kts | 1° |
| 2026-05-06 01:10 | 35.04345 | -80.94149 | 4496 ft | 221 kts | 2° |
| 2026-05-06 01:10 | 35.05872 | -80.94020 | 4494 ft | 220 kts | 360° |
| 2026-05-06 01:11 | 35.07395 | -80.94018 | 4510 ft | 217 kts | 349° |
| 2026-05-06 01:11 | 35.08887 | -80.94250 | 4497 ft | 215 kts | 347° |
| 2026-05-06 01:11 | 35.10362 | -80.94536 | 4484 ft | 214 kts | 346° |
| 2026-05-06 01:11 | 35.11824 | -80.94854 | 4487 ft | 210 kts | 346° |
| 2026-05-06 01:12 | 35.13207 | -80.95127 | 4487 ft | 193 kts | 350° |
| 2026-05-06 01:12 | 35.14528 | -80.95284 | 4279 ft | 193 kts | 348° |
| 2026-05-06 01:12 | 35.15807 | -80.95742 | 3917 ft | 192 kts | 330° |
| 2026-05-06 01:12 | 35.16984 | -80.96349 | 3812 ft | 179 kts | 338° |
| 2026-05-06 01:13 | 35.18196 | -80.96697 | 3642 ft | 176 kts | 342° |
| 2026-05-06 01:13 | 35.19383 | -80.97001 | 3411 ft | 178 kts | 343° |
| 2026-05-06 01:13 | 35.20591 | -80.97171 | 3348 ft | 171 kts | 351° |
| 2026-05-06 01:13 | 35.21771 | -80.97311 | 3220 ft | 170 kts | 351° |
| 2026-05-06 01:14 | 35.24007 | -80.97456 | 3271 ft | 154 kts | 349° |
| 2026-05-06 01:14 | 35.25054 | -80.97381 | 3279 ft | 154 kts | 13° |
| 2026-05-06 01:14 | 35.25604 | -80.96357 | 2979 ft | 148 kts | 96° |
| 2026-05-06 01:15 | 35.25332 | -80.95351 | 2867 ft | 95 kts | 152° |
| 2026-05-06 01:15 | 35.24827 | -80.95408 | 2588 ft | 88 kts | 199° |
| 2026-05-06 01:15 | 35.24244 | -80.95471 | 2578 ft | 84 kts | 140° |
| 2026-05-06 01:15 | 35.24003 | -80.94759 | 2504 ft | 102 kts | 97° |
| 2026-05-06 01:16 | 35.23920 | -80.93838 | 2353 ft | 112 kts | 104° |
| 2026-05-06 01:16 | 35.23881 | -80.92909 | 2436 ft | 105 kts | 100° |
| 2026-05-06 01:16 | 35.23785 | -80.92030 | 2451 ft | 103 kts | 111° |
| 2026-05-06 01:16 | 35.23637 | -80.91193 | 2540 ft | 99 kts | 116° |
| 2026-05-06 01:17 | 35.23528 | -80.90659 | 2584 ft | 97 kts | 116° |
| 2026-05-06 01:17 | 35.23446 | -80.89810 | 2580 ft | 110 kts | 87° |
| 2026-05-06 01:17 | 35.23832 | -80.88920 | 2505 ft | 128 kts | 36° |
| 2026-05-06 01:17 | 35.24654 | -80.88505 | 2398 ft | 134 kts | 354° |
| 2026-05-06 01:18 | 35.25595 | -80.88451 | 2286 ft | 133 kts | 349° |
| 2026-05-06 01:18 | 35.26529 | -80.88441 | 2188 ft | 134 kts | 352° |
| 2026-05-06 01:18 | 35.27415 | -80.88509 | 2307 ft | 117 kts | 343° |
| 2026-05-06 01:18 | 35.28166 | -80.88794 | 2297 ft | 110 kts | 321° |
| 2026-05-06 01:19 | 35.28740 | -80.89326 | 2298 ft | 97 kts | 298° |
| 2026-05-06 01:19 | 35.29091 | -80.89979 | 2257 ft | 88 kts | 272° |
| 2026-05-06 01:19 | 35.29120 | -80.90692 | 2160 ft | 84 kts | 251° |
| 2026-05-06 01:19 | 35.29068 | -80.91415 | 2089 ft | 86 kts | 252° |
| 2026-05-06 01:20 | 35.29052 | -80.92142 | 2041 ft | 84 kts | 255° |
| 2026-05-06 01:20 | 35.29002 | -80.92819 | 2022 ft | 77 kts | 248° |
| 2026-05-06 01:20 | 35.28781 | -80.93328 | 2020 ft | 63 kts | 208° |
| 2026-05-06 01:20 | 35.28365 | -80.93486 | 1925 ft | 65 kts | 191° |
| 2026-05-06 01:21 | 35.27920 | -80.93573 | 1837 ft | 62 kts | 189° |
| 2026-05-06 01:21 | 35.27546 | -80.93576 | 1759 ft | 55 kts | 180° |
| 2026-05-06 01:21 | 35.27138 | -80.93579 | 1568 ft | 60 kts | 185° |
| 2026-05-06 01:21 | 35.26722 | -80.93583 | 1471 ft | 62 kts | 178° |
| 2026-05-06 01:22 | 35.26283 | -80.93551 | 1419 ft | 64 kts | 183° |
| 2026-05-06 01:22 | 35.25842 | -80.93562 | 1354 ft | 63 kts | 187° |
| 2026-05-06 01:22 | 35.25405 | -80.93591 | 1237 ft | 63 kts | 180° |
| 2026-05-06 01:22 | 35.24974 | -80.93580 | 1142 ft | 61 kts | 179° |
| 2026-05-06 01:23 | 35.24554 | -80.93580 | 1037 ft | 60 kts | 181° |
| 2026-05-06 01:23 | 35.24129 | -80.93602 | 971 ft | 63 kts | 178° |
| 2026-05-06 01:23 | 35.23689 | -80.93589 | 942 ft | 62 kts | 177° |
| 2026-05-06 01:23 | 35.23241 | -80.93589 | 888 ft | 65 kts | 182° |
| 2026-05-06 01:24 | 35.22780 | -80.93604 | 823 ft | 68 kts | 181° |
| 2026-05-06 01:24 | 35.22307 | -80.93586 | 746 ft | 65 kts | 176° |
| 2026-05-06 01:24 | 35.21894 | -80.93555 | 722 ft | 44 kts | 175° |
| 2026-05-06 01:24 | 35.21655 | -80.93537 | 719 ft | 36 kts | 176° |
| 2026-05-06 01:25 | 35.21436 | -80.93498 | 717 ft | 18 kts | 144° |
| 2026-05-06 01:25 | 35.21352 | -80.93413 | 715 ft | 10 kts | 136° |
| 2026-05-06 01:25 | 35.21344 | -80.93403 | 715 ft | 7 kts | 136° |